Terminal Aerodrome Forecast
Issued by NWS

Home | Current Version | Previous Version | Text Only | Print | Product List | Glossary On
Versions: 1 2 3 4 5 6 7 8 9 10 11 12 13 14
670
FTUS44 KEWX 231724
TAFSSF
TAF
KSSF 231724Z 2318/2418 18012KT P6SM SKC
     FM240000 26004KT P6SM SKC
     FM240800 VRB03KT 4SM BR SKC
     FM241000 33005KT P6SM FEW250
     FM241700 33014KT P6SM FEW250=

USA.gov is the U.S. government's official web portal to all federal, state and local government web resources and services.